createdAt,value
2022-12-27T00:01:14.094Z,2.75
2022-12-27T00:06:17.029Z,2.78
2022-12-27T00:11:18.596Z,2.85
2022-12-27T00:16:17.529Z,2.91
2022-12-27T00:21:14.215Z,2.88
2022-12-27T00:26:22.712Z,2.85
2022-12-27T00:31:21.305Z,2.82
2022-12-27T00:36:20.294Z,2.92
2022-12-27T00:41:17.369Z,2.88
2022-12-27T00:46:14.203Z,2.84
2022-12-27T00:51:10.552Z,2.81
2022-12-27T00:56:13.836Z,2.83
2022-12-27T01:01:18.114Z,2.89
2022-12-27T01:06:20.187Z,2.93
2022-12-27T01:11:18.461Z,2.99
2022-12-27T01:16:18.177Z,3.00
2022-12-27T01:21:16.976Z,2.98
2022-12-27T01:26:16.371Z,2.96
2022-12-27T01:31:16.271Z,2.88
2022-12-27T01:36:16.532Z,2.84
2022-12-27T01:41:39.207Z,2.76
2022-12-27T01:46:36.982Z,2.76
2022-12-27T01:51:33.396Z,2.75
2022-12-27T01:56:31.303Z,2.62
2022-12-27T02:01:39.764Z,2.56
2022-12-27T02:06:38.097Z,2.42
2022-12-27T02:11:51.128Z,2.42
2022-12-27T02:16:49.010Z,2.46
2022-12-27T02:22:08.169Z,2.42
2022-12-27T02:27:25.829Z,2.38
2022-12-27T02:32:35.150Z,2.37
2022-12-27T02:37:34.035Z,2.34
2022-12-27T02:42:48.906Z,2.29
2022-12-27T02:48:06.373Z,2.23
2022-12-27T02:53:13.547Z,2.23
2022-12-27T02:58:44.826Z,2.22
2022-12-27T03:03:54.705Z,2.27
2022-12-27T03:09:45.360Z,2.28
2022-12-27T03:15:06.422Z,2.31
2022-12-27T03:20:34.506Z,2.28
2022-12-27T03:25:34.735Z,2.33
2022-12-27T03:30:49.866Z,2.43
2022-12-27T03:36:17.810Z,2.46
2022-12-27T03:41:35.981Z,2.49
2022-12-27T03:46:34.797Z,2.59
2022-12-27T03:51:34.611Z,2.58
2022-12-27T03:56:31.563Z,2.63
2022-12-27T04:01:28.119Z,2.60
2022-12-27T04:06:24.514Z,2.63
2022-12-27T04:11:39.385Z,2.66
2022-12-27T04:16:54.300Z,2.68
2022-12-27T04:22:09.405Z,2.73
2022-12-27T04:27:24.390Z,2.78
2022-12-27T04:32:39.321Z,2.77
2022-12-27T04:37:35.715Z,2.81
2022-12-27T04:42:50.709Z,2.86
2022-12-27T04:48:05.793Z,2.98
2022-12-27T04:53:20.594Z,3.06
2022-12-27T04:58:17.163Z,3.12
2022-12-27T05:03:16.947Z,3.12
2022-12-27T05:08:33.366Z,3.10
2022-12-27T05:13:48.512Z,3.08
2022-12-27T05:18:44.986Z,3.08
2022-12-27T05:24:05.149Z,3.09
2022-12-27T05:29:02.991Z,3.08
2022-12-27T05:33:59.939Z,3.03
2022-12-27T05:38:57.465Z,2.99
2022-12-27T05:43:53.917Z,2.93
2022-12-27T05:48:50.276Z,2.92
2022-12-27T05:53:47.614Z,2.92
2022-12-27T05:58:44.848Z,2.96
2022-12-27T06:03:41.878Z,3.00
2022-12-27T06:08:38.966Z,3.02
2022-12-27T06:13:36.806Z,3.04
2022-12-27T06:18:35.728Z,3.09
2022-12-27T06:23:35.977Z,3.10
2022-12-27T06:28:32.674Z,3.13
2022-12-27T06:33:29.415Z,3.16
2022-12-27T06:38:25.861Z,3.19
2022-12-27T06:43:22.191Z,3.21
2022-12-27T06:48:18.615Z,3.23
2022-12-27T06:53:15.006Z,3.26
2022-12-27T06:58:12.841Z,3.32
2022-12-27T07:03:09.279Z,3.44
2022-12-27T07:08:06.283Z,3.45
2022-12-27T07:13:02.695Z,3.50
2022-12-27T07:17:59.735Z,3.57
2022-12-27T07:22:58.814Z,3.60
2022-12-27T07:27:55.253Z,3.63
2022-12-27T07:32:51.643Z,3.62
2022-12-27T07:37:48.069Z,3.66
2022-12-27T07:42:44.431Z,3.67
2022-12-27T07:47:40.912Z,3.68
2022-12-27T07:52:37.301Z,3.69
2022-12-27T07:57:33.767Z,3.68
2022-12-27T08:02:30.153Z,3.68
2022-12-27T08:07:26.687Z,3.66
2022-12-27T08:12:23.141Z,3.67
2022-12-27T08:17:27.349Z,3.67
2022-12-27T08:22:24.602Z,3.63
2022-12-27T08:27:23.167Z,3.66
2022-12-27T08:32:19.519Z,3.67
2022-12-27T08:37:15.979Z,3.67
2022-12-27T08:42:13.432Z,3.69
2022-12-27T08:47:09.873Z,3.69
2022-12-27T08:52:06.717Z,3.69
2022-12-27T08:57:03.073Z,3.69
2022-12-27T09:01:59.455Z,3.71
2022-12-27T09:06:55.798Z,3.71
2022-12-27T09:11:52.226Z,3.69
2022-12-27T09:16:48.521Z,3.71
2022-12-27T09:21:44.820Z,3.72
2022-12-27T09:26:41.768Z,3.74
2022-12-27T09:31:38.158Z,3.75
2022-12-27T09:36:37.606Z,3.76
2022-12-27T09:47:23.129Z,3.75
2022-12-27T09:52:41.295Z,3.76
2022-12-27T09:57:40.955Z,3.80
2022-12-27T10:02:37.462Z,3.84
2022-12-27T10:07:48.825Z,3.85
2022-12-27T10:13:14.425Z,3.93
2022-12-27T10:18:41.287Z,3.95
2022-12-27T10:23:42.219Z,3.96
2022-12-27T10:28:41.397Z,4.06
2022-12-27T10:33:37.993Z,4.12
2022-12-27T10:38:35.854Z,4.26
2022-12-27T10:43:38.538Z,4.20
2022-12-27T10:49:02.659Z,4.20
2022-12-27T10:53:51.491Z,4.26
2022-12-27T10:58:58.197Z,4.31
2022-12-27T11:04:20.148Z,4.31
2022-12-27T11:09:32.806Z,4.23
2022-12-27T11:14:29.276Z,4.29
2022-12-27T11:19:27.405Z,4.24
2022-12-27T11:24:23.881Z,4.27
2022-12-27T11:29:22.875Z,4.31
2022-12-27T11:34:38.035Z,4.32
2022-12-27T11:39:37.147Z,4.40
2022-12-27T11:44:38.615Z,4.46
2022-12-27T11:50:02.740Z,4.54
2022-12-27T11:55:11.319Z,4.47
2022-12-27T12:00:24.613Z,4.47
2022-12-27T12:05:44.864Z,4.59
2022-12-27T12:10:53.562Z,4.61
2022-12-27T12:16:18.042Z,4.71
2022-12-27T12:21:33.401Z,4.81
2022-12-27T12:26:54.177Z,4.91
2022-12-27T12:31:58.295Z,4.98
2022-12-27T12:37:17.757Z,5.12
2022-12-27T12:42:49.927Z,5.08
2022-12-27T12:48:04.701Z,5.08
2022-12-27T12:53:22.383Z,5.18
2022-12-27T12:58:38.666Z,5.23
2022-12-27T13:03:52.990Z,5.22
2022-12-27T13:09:16.819Z,5.25
2022-12-27T13:14:41.286Z,5.36
2022-12-27T13:20:15.004Z,5.71
2022-12-27T13:25:14.169Z,5.85
2022-12-27T13:30:22.314Z,5.80
2022-12-27T13:35:30.541Z,5.85
2022-12-27T13:40:46.148Z,5.72
2022-12-27T13:46:08.679Z,5.72
2022-12-27T13:51:27.853Z,5.74
2022-12-27T13:57:01.130Z,5.71
2022-12-27T14:02:32.201Z,5.69
2022-12-27T14:07:42.206Z,5.71
2022-12-27T14:12:47.574Z,5.74
2022-12-27T14:17:57.953Z,5.77
2022-12-27T14:23:16.915Z,5.79
2022-12-27T14:28:49.032Z,5.73
2022-12-27T14:34:23.084Z,5.67
2022-12-27T14:39:59.410Z,5.62
2022-12-27T14:45:14.571Z,5.62
2022-12-27T14:50:30.833Z,5.57
2022-12-27T14:55:39.948Z,5.53
2022-12-27T15:01:02.905Z,5.44
2022-12-27T15:06:29.391Z,5.33
2022-12-27T15:11:55.397Z,5.31
2022-12-27T15:17:12.568Z,5.39
2022-12-27T15:22:18.119Z,5.22
2022-12-27T15:27:53.961Z,5.14
2022-12-27T15:33:16.591Z,5.16
2022-12-27T15:38:41.138Z,5.09
2022-12-27T15:43:56.233Z,5.03
2022-12-27T15:49:30.237Z,4.99
2022-12-27T15:54:47.602Z,4.91
2022-12-27T16:00:06.462Z,4.94
2022-12-27T16:05:22.728Z,4.84
2022-12-27T16:10:35.384Z,4.88
2022-12-27T16:15:53.244Z,4.86
2022-12-27T16:20:58.251Z,4.72
2022-12-27T16:26:10.381Z,4.68
2022-12-27T16:31:11.703Z,4.73
2022-12-27T16:36:20.446Z,4.74
2022-12-27T16:41:32.488Z,4.78
2022-12-27T16:47:00.494Z,4.86
2022-12-27T16:52:18.397Z,4.86
2022-12-27T16:57:39.558Z,4.95
2022-12-27T17:02:44.487Z,4.89
2022-12-27T17:07:53.770Z,4.84
2022-12-27T17:12:53.761Z,4.89
2022-12-27T17:17:56.595Z,4.87
2022-12-27T17:22:57.500Z,4.92
2022-12-27T17:28:08.591Z,5.00
2022-12-27T17:33:17.894Z,4.97
2022-12-27T17:38:44.011Z,5.02
2022-12-27T17:44:05.099Z,5.19
2022-12-27T17:49:01.598Z,5.17
2022-12-27T17:54:16.275Z,5.15
2022-12-27T17:59:22.914Z,5.21
2022-12-27T18:04:35.959Z,5.22
2022-12-27T18:09:48.102Z,5.27
2022-12-27T18:14:51.277Z,5.37
2022-12-27T18:19:47.587Z,5.38
2022-12-27T18:24:43.900Z,5.40
2022-12-27T18:29:46.357Z,5.42
2022-12-27T18:34:48.862Z,5.45
2022-12-27T18:39:54.777Z,5.49
2022-12-27T18:44:56.926Z,5.56
2022-12-27T18:49:56.957Z,5.54
2022-12-27T18:54:53.683Z,5.50
2022-12-27T19:00:21.567Z,5.59
2022-12-27T19:05:20.903Z,5.48
2022-12-27T19:10:20.425Z,5.55
2022-12-27T19:15:21.966Z,5.51
2022-12-27T19:20:24.878Z,5.41
2022-12-27T19:25:30.266Z,5.35
2022-12-27T19:30:31.862Z,5.32
2022-12-27T19:35:28.766Z,5.22
2022-12-27T19:40:25.156Z,5.17
2022-12-27T19:45:21.619Z,5.00
2022-12-27T19:50:18.001Z,4.91
2022-12-27T19:55:24.345Z,4.72
2022-12-27T20:00:23.326Z,4.70
2022-12-27T20:06:13.622Z,4.63
2022-12-27T20:10:36.019Z,4.63
2022-12-27T20:15:32.662Z,4.44
2022-12-27T20:20:28.953Z,4.36
2022-12-27T20:25:25.659Z,4.26
2022-12-27T20:30:22.015Z,4.34
2022-12-27T20:35:18.422Z,4.16
2022-12-27T20:40:14.812Z,4.10
2022-12-27T20:45:11.786Z,4.10
2022-12-27T20:50:08.803Z,4.02
2022-12-27T20:55:10.333Z,4.03
2022-12-27T21:00:08.298Z,4.05
2022-12-27T21:05:05.227Z,3.82
2022-12-27T21:10:01.846Z,3.81
2022-12-27T21:14:59.017Z,3.77
2022-12-27T21:19:55.512Z,3.69
2022-12-27T21:24:51.931Z,3.62
2022-12-27T21:29:48.288Z,3.60
2022-12-27T21:34:44.773Z,3.64
2022-12-27T21:39:41.140Z,3.59
2022-12-27T21:44:38.882Z,3.60
2022-12-27T21:49:35.431Z,3.60
2022-12-27T21:54:31.726Z,3.52
2022-12-27T21:59:28.039Z,3.57
2022-12-27T22:04:24.336Z,3.61
2022-12-27T22:09:20.710Z,3.57
2022-12-27T22:14:20.595Z,3.54
2022-12-27T22:19:19.872Z,3.59
2022-12-27T22:24:19.384Z,3.57
2022-12-27T22:29:16.024Z,3.60
2022-12-27T22:34:12.398Z,3.58
2022-12-27T22:39:08.795Z,3.59
2022-12-27T22:44:08.705Z,3.47
2022-12-27T22:49:05.531Z,3.46
2022-12-27T22:54:03.043Z,3.40
2022-12-27T22:59:00.022Z,3.41
2022-12-27T23:03:57.470Z,3.40
2022-12-27T23:08:54.473Z,3.46
2022-12-27T23:13:56.743Z,3.48
2022-12-27T23:18:53.705Z,3.51
2022-12-27T23:23:50.110Z,3.55
2022-12-27T23:28:48.703Z,3.47
2022-12-27T23:33:45.183Z,3.48
2022-12-27T23:38:42.955Z,3.49
2022-12-27T23:43:56.190Z,3.53
2022-12-27T23:48:53.570Z,3.61
2022-12-27T23:53:50.609Z,3.68
2022-12-27T23:58:48.820Z,3.73
